Franklin, NC

4:33 PM EDT on June 02, 2015 (GMT -0400)
Andrews | | Change Station
CLOSE
Current Station
Airport
Location: Andrews,
Elevation: 1696 ft
Nearby Weather Stations

Elev 1696 ft 35.20 °N, 83.86 °W | Updated 18 minutes ago

Overcast
Overcast
79 °F
Feels Like 79 °F
N
10
Wind Variable Wind from WSW

Today
High -- | Low -- °F
--% Chance of Precip.
Yesterday
High -- | Low -- °F
Precip. -- in
6:20 AM 8:43 PM
Full, 100% visible
Pressure 29.97 in
Visibility 10.0 miles
Clouds Scattered Clouds 4800 ft
Scattered Clouds 10000 ft
Dew Point 60 °F
Humidity 51%
Rainfall 0.51 in
Snow Depth Not available.
UV 7 out of 12
Pollen 2.80 out of 12
Air Quality Not available.
Flu Activity No Activity
METAR KRHP 022015Z AUTO 25009KT 10SM SCT048 SCT100 26/16 A2997 RMK AO2 T02630155

More Conditions Fewer Conditions

Pressure 29.97 in
Visibility 10.0 miles
Clouds Scattered Clouds 4800 ft
Scattered Clouds 10000 ft
Dew Point 60 °F
Humidity 51%
Rainfall 0.51 in
Snow Depth Not available.
UV 7 out of 12
Pollen 2.80 out of 12
Air Quality Not available.
Flu Activity No Activity
METAR KRHP 022015Z AUTO 25009KT 10SM SCT048 SCT100 26/16 A2997 RMK AO2 T02630155

More Conditions Fewer Conditions

10-Day Weather Forecast

Almanac

Astronomy

Jun. 02, 2015 Rise Set
Actual Time
Civil Twilight
Nautical Twilight
Astronomical Twilight
Moon
Length of Visible Light
Length of Day
Tomorrow will be .
, % of the Moon is Illuminated

Today's Extremes

State Highs State Lows

Community

WunderPhotos

Upload Photos

1,826,020 photos uploaded!

WunderBlogs® & News

Nearby

Air Quality

  Air Quality AQ Index Pollutant
Not available.

Snow Depth

Station Depth Elevation

Earthquake Activity

City Distance Mag. Time & Date
Minimum magnitude displayed is 2.5.

Coastal Water Temperatures

Place Temperature

Stations

Nearby Weather Stations

Station Location Temp. Windchill Dew Point Humidity Wind Precip. Elev Updated Type